Kezdőlap
METAR-TAF:

METAR-TAF

Repülőterek :

Dakar, Szenegál

földrajzi szélesség: 14-44N, földrajzi hosszúság: 017-30W, magasság: 27 m

Jelenlegi meteorológiai megfigyelések

A jelentés 33 perccel ezelõtt készült, 10:00 UTC
Északnyugati szél 14 kt
Hőmérséklet 26°C
Páratartalom 74%
Légköri nyomás 1013 hPa
Látótávolság 10 km, vagy több
felhőtlen 1500 m magasságban, és nincs gomolyfelhõ

METAR: GOOY 061000Z 32014KT CAVOK 26/21 Q1013

Idő: 10:33 (10:33 UTC)

Előrejelzés

A jelentés 5 órával és 3 perccel ezelõtt készült, 05:30 UTC
Az előrejelzés 06-én 06 óra UTC és 07-én 12 óra UTC között érvényes
Észak-északnyugati szél 13 kt
Látótávolság 10 km, vagy több
felhőtlen 1500 m magasságban, és nincs gomolyfelhõ

TAF: GOOY 060530Z 0606/0712 34013KT CAVOK

Meteorológiai megfigyelések és előrejelzések több, mint 4000 repülőtéren (METAR és TAF jelentéseket).

A térképen piros és sárga pontok jelzik az elérhető meteorológiai állomásokat.

Mozgassa az egeret a pont fölött, hogy megjelenjen az állomás neve.

Azután kattintson az időjárási megfigyelések és előrejelzések megtekintéséhez.

A térkép megváltoztatása: kattintson a fekete keresztel jelölt zöld gombra ráközelítéshez, a vonallal jelölt zöld gombra távolításhoz, vagy a zöld nyilakra a szomszédos térképek eléréséhez.


METAR-TAF: